Aviation Digital Data Service (ADDS)

Output produced by TAFs form (0250 UTC 28 July 2016)
found at http://aviationweather.gov/adds/tafs/
 
KABQ 272328Z 2800/2824 13009KT P6SM VCTS SCT090CB 
     FM280200 12008KT P6SM SCT120 
     FM280700 10005KT P6SM FEW150 
     FM281900 21006KT P6SM FEW090